createdAt,value
2019-03-22T00:00:55.810Z,7.08
2019-03-22T00:03:21.745Z,7.01
2019-03-22T00:05:47.685Z,7.08
2019-03-22T00:08:13.677Z,7.07
2019-03-22T00:10:39.780Z,7.05
2019-03-22T00:13:05.723Z,7.17
2019-03-22T00:15:31.658Z,7.14
2019-03-22T00:17:57.646Z,7.16
2019-03-22T00:20:23.590Z,7.11
2019-03-22T00:22:49.412Z,7.13
2019-03-22T00:25:15.540Z,7.19
2019-03-22T00:27:41.475Z,7.14
2019-03-22T00:30:08.937Z,7.20
2019-03-22T00:32:35.137Z,7.19
2019-03-22T00:35:00.966Z,7.12
2019-03-22T00:37:26.805Z,7.07
2019-03-22T00:39:52.819Z,7.09
2019-03-22T00:42:18.696Z,7.04
2019-03-22T00:44:44.540Z,7.01
2019-03-22T00:47:10.397Z,7.02
2019-03-22T00:49:36.239Z,7.01
2019-03-22T00:52:02.219Z,6.96
2019-03-22T00:54:28.032Z,7.02
2019-03-22T00:56:53.886Z,6.97
2019-03-22T00:59:19.796Z,6.85
2019-03-22T01:01:45.653Z,6.76
2019-03-22T01:04:11.696Z,6.76
2019-03-22T01:06:37.698Z,6.76
2019-03-22T01:09:04.512Z,6.72
2019-03-22T01:11:30.338Z,6.71
2019-03-22T01:13:56.291Z,6.62
2019-03-22T01:16:22.156Z,6.72
2019-03-22T01:18:48.099Z,6.86
2019-03-22T01:21:14.348Z,6.87
2019-03-22T01:23:40.158Z,6.91
2019-03-22T01:26:06.123Z,6.84
2019-03-22T01:28:32.058Z,6.74
2019-03-22T01:30:57.912Z,6.77
2019-03-22T01:33:23.746Z,6.64
2019-03-22T01:35:49.891Z,6.59
2019-03-22T01:38:15.730Z,6.57
2019-03-22T01:40:41.608Z,6.57
2019-03-22T01:43:07.681Z,6.48
2019-03-22T01:45:33.623Z,6.50
2019-03-22T01:47:59.648Z,6.52
2019-03-22T01:50:25.590Z,6.55
2019-03-22T01:52:51.431Z,6.52
2019-03-22T01:55:17.369Z,6.54
2019-03-22T01:57:52.375Z,6.47
2019-03-22T02:00:13.371Z,6.35
2019-03-22T02:02:39.402Z,6.27
2019-03-22T02:05:06.233Z,6.26
2019-03-22T02:07:32.160Z,6.28
2019-03-22T02:09:58.009Z,6.22
2019-03-22T02:12:23.840Z,6.19
2019-03-22T02:14:49.677Z,6.16
2019-03-22T02:17:15.603Z,6.19
2019-03-22T02:19:41.557Z,6.26
2019-03-22T02:22:07.496Z,6.23
2019-03-22T02:24:33.429Z,6.27
2019-03-22T02:26:59.377Z,6.21
2019-03-22T02:29:25.209Z,6.28
2019-03-22T02:31:51.037Z,6.26
2019-03-22T02:34:16.959Z,6.39
2019-03-22T02:36:42.782Z,6.23
2019-03-22T02:39:08.633Z,6.07
2019-03-22T02:41:38.349Z,6.06
2019-03-22T02:44:04.297Z,6.01
2019-03-22T02:46:30.120Z,6.07
2019-03-22T02:48:56.009Z,6.04
2019-03-22T02:51:21.828Z,6.15
2019-03-22T02:53:47.664Z,6.16
2019-03-22T02:56:13.838Z,6.21
2019-03-22T02:58:39.988Z,6.13
2019-03-22T03:01:06.105Z,6.13
2019-03-22T03:03:32.094Z,6.14
2019-03-22T03:05:58.132Z,6.07
2019-03-22T03:08:23.982Z,5.97
2019-03-22T03:10:49.972Z,5.97
2019-03-22T03:13:15.824Z,5.95
2019-03-22T03:15:41.690Z,5.84
2019-03-22T03:18:07.673Z,5.89
2019-03-22T03:20:33.619Z,5.94
2019-03-22T03:22:59.445Z,5.89
2019-03-22T03:25:25.510Z,5.90
2019-03-22T03:27:51.454Z,5.93
2019-03-22T03:30:18.737Z,5.84
2019-03-22T03:32:44.871Z,5.92
2019-03-22T03:35:11.154Z,5.93
2019-03-22T03:37:37.149Z,5.80
2019-03-22T03:40:06.178Z,5.80
2019-03-22T03:42:32.300Z,5.80
2019-03-22T03:44:58.182Z,5.81
2019-03-22T03:47:24.025Z,5.79
2019-03-22T03:49:49.873Z,5.80
2019-03-22T03:52:15.800Z,5.80
2019-03-22T03:54:41.631Z,5.74
2019-03-22T03:57:07.479Z,5.76
2019-03-22T03:59:33.337Z,5.79
2019-03-22T04:01:59.307Z,5.73
2019-03-22T04:04:25.289Z,5.77
2019-03-22T04:06:51.199Z,5.83
2019-03-22T04:09:17.032Z,5.80
2019-03-22T04:11:43.001Z,5.79
2019-03-22T04:14:08.838Z,5.70
2019-03-22T04:16:34.800Z,5.77
2019-03-22T04:19:00.751Z,5.77
2019-03-22T04:21:26.580Z,5.64
2019-03-22T04:23:52.542Z,5.60
2019-03-22T04:26:18.498Z,5.67
2019-03-22T04:28:44.334Z,5.62
2019-03-22T04:31:10.307Z,5.57
2019-03-22T04:33:36.112Z,5.73
2019-03-22T04:36:02.753Z,5.72
2019-03-22T04:38:28.568Z,5.74
2019-03-22T04:40:54.408Z,5.66
2019-03-22T04:43:20.448Z,5.66
2019-03-22T04:45:47.083Z,5.64
2019-03-22T04:48:16.752Z,5.54
2019-03-22T04:50:44.870Z,5.53
2019-03-22T04:53:14.506Z,5.51
2019-03-22T04:55:44.258Z,5.54
2019-03-22T04:58:12.113Z,5.57
2019-03-22T05:00:38.451Z,5.57
2019-03-22T05:03:05.758Z,5.45
2019-03-22T05:05:31.773Z,5.36
2019-03-22T05:07:57.825Z,5.37
2019-03-22T05:10:24.810Z,5.38
2019-03-22T05:12:51.964Z,5.38
2019-03-22T05:15:19.509Z,5.42
2019-03-22T05:17:46.377Z,5.49
2019-03-22T05:20:13.722Z,5.53
2019-03-22T05:22:41.489Z,5.52
2019-03-22T05:25:09.237Z,5.53
2019-03-22T05:27:38.773Z,5.64
2019-03-22T05:30:08.386Z,5.61
2019-03-22T05:32:34.374Z,5.57
2019-03-22T05:35:00.439Z,5.63
2019-03-22T05:37:26.430Z,5.64
2019-03-22T05:39:52.250Z,5.63
2019-03-22T05:42:18.118Z,5.57
2019-03-22T05:44:44.068Z,5.59
2019-03-22T05:47:09.891Z,5.56
2019-03-22T05:49:35.758Z,5.56
2019-03-22T05:52:01.670Z,5.56
2019-03-22T05:54:27.591Z,5.64
2019-03-22T05:56:53.419Z,5.71
2019-03-22T05:59:19.385Z,5.70
2019-03-22T06:01:45.603Z,5.69
2019-03-22T06:04:11.638Z,5.66
2019-03-22T06:06:37.456Z,5.67
2019-03-22T06:09:06.192Z,5.69
2019-03-22T06:11:32.203Z,5.79
2019-03-22T06:13:58.057Z,5.82
2019-03-22T06:16:23.997Z,5.90
2019-03-22T06:18:50.550Z,6.04
2019-03-22T06:21:16.644Z,6.20
2019-03-22T06:23:42.468Z,6.20
2019-03-22T06:26:08.545Z,6.31
2019-03-22T06:28:34.467Z,6.46
2019-03-22T06:31:00.323Z,6.46
2019-03-22T06:33:26.260Z,6.58
2019-03-22T06:35:52.210Z,6.65
2019-03-22T06:38:18.113Z,6.70
2019-03-22T06:40:43.958Z,6.80
2019-03-22T06:43:09.837Z,6.91
2019-03-22T06:45:35.899Z,7.06
2019-03-22T06:48:01.839Z,7.21
2019-03-22T06:50:27.697Z,7.33
2019-03-22T06:52:53.580Z,7.49
2019-03-22T06:55:19.535Z,7.62
2019-03-22T06:57:45.381Z,7.74
2019-03-22T07:00:12.257Z,7.81
2019-03-22T07:02:38.222Z,7.93
2019-03-22T07:05:05.167Z,8.02
2019-03-22T07:07:30.988Z,8.14
2019-03-22T07:09:56.810Z,8.23
2019-03-22T07:12:22.873Z,8.39
2019-03-22T07:14:48.711Z,8.53
2019-03-22T07:17:14.624Z,8.59
2019-03-22T07:19:40.536Z,8.68
2019-03-22T07:22:06.456Z,8.79
2019-03-22T07:24:32.331Z,8.82
2019-03-22T07:26:58.195Z,8.96
2019-03-22T07:29:24.171Z,8.99
2019-03-22T07:31:50.498Z,9.15
2019-03-22T07:34:16.380Z,9.24
2019-03-22T07:36:42.220Z,9.36
2019-03-22T07:39:08.210Z,9.45
2019-03-22T07:41:34.257Z,9.47
2019-03-22T07:44:00.130Z,9.57
2019-03-22T07:46:25.963Z,9.68
2019-03-22T07:48:51.834Z,9.82
2019-03-22T07:51:17.685Z,9.97
2019-03-22T07:53:43.531Z,10.06
2019-03-22T07:56:09.378Z,10.21
2019-03-22T07:58:35.467Z,10.28
2019-03-22T08:01:01.294Z,10.35
2019-03-22T08:03:27.150Z,10.54
2019-03-22T08:05:53.112Z,10.68
2019-03-22T08:08:18.935Z,10.85
2019-03-22T08:10:44.789Z,10.94
2019-03-22T08:13:10.753Z,11.15
2019-03-22T08:15:36.771Z,11.36
2019-03-22T08:18:03.211Z,11.65
2019-03-22T08:20:29.308Z,11.84
2019-03-22T08:22:55.334Z,11.80
2019-03-22T08:25:21.179Z,11.97
2019-03-22T08:27:47.368Z,12.13
2019-03-22T08:30:13.427Z,12.29
2019-03-22T08:32:39.392Z,12.38
2019-03-22T08:35:05.362Z,12.39
2019-03-22T08:37:31.128Z,12.56
2019-03-22T08:39:57.100Z,12.61
2019-03-22T08:42:22.939Z,12.75
2019-03-22T08:44:48.817Z,12.78
2019-03-22T08:47:14.718Z,12.94
2019-03-22T08:49:40.656Z,12.92
2019-03-22T08:52:06.854Z,13.09
2019-03-22T08:54:32.804Z,13.20
2019-03-22T08:56:58.656Z,13.26
2019-03-22T08:59:24.489Z,13.31
2019-03-22T09:01:50.311Z,13.38
2019-03-22T09:04:16.155Z,13.50
2019-03-22T09:06:42.123Z,13.67
2019-03-22T09:09:08.153Z,13.67
2019-03-22T09:11:34.072Z,13.49
2019-03-22T09:13:59.964Z,13.71
2019-03-22T09:16:25.876Z,13.88
2019-03-22T09:18:51.832Z,13.75
2019-03-22T09:21:17.656Z,13.88
2019-03-22T09:23:43.653Z,13.96
2019-03-22T09:26:09.527Z,14.06
2019-03-22T09:28:36.349Z,14.29
2019-03-22T09:31:10.256Z,14.38
2019-03-22T09:33:32.237Z,14.42
2019-03-22T09:35:58.064Z,14.32
2019-03-22T09:38:23.903Z,14.47
2019-03-22T09:40:50.009Z,14.63
2019-03-22T09:43:15.825Z,14.42
2019-03-22T09:45:45.277Z,14.56
2019-03-22T09:48:11.285Z,14.52
2019-03-22T09:50:37.325Z,14.41
2019-03-22T09:53:03.179Z,14.44
2019-03-22T09:55:29.059Z,14.68
2019-03-22T09:57:55.002Z,14.88
2019-03-22T10:00:33.607Z,14.90
2019-03-22T10:03:00.504Z,15.00
2019-03-22T10:05:26.506Z,14.99
2019-03-22T10:07:52.453Z,15.15
2019-03-22T10:10:18.311Z,14.63
2019-03-22T10:12:44.234Z,14.93
2019-03-22T10:15:10.197Z,14.80
2019-03-22T10:17:36.041Z,14.66
2019-03-22T10:20:04.242Z,14.78
2019-03-22T10:22:30.150Z,15.05
2019-03-22T10:24:56.025Z,14.97
2019-03-22T10:27:21.893Z,15.31
2019-03-22T10:29:47.909Z,14.97
2019-03-22T10:32:13.862Z,15.27
2019-03-22T10:34:39.988Z,14.97
2019-03-22T10:37:05.848Z,15.25
2019-03-22T10:39:31.721Z,15.23
2019-03-22T10:41:58.056Z,15.23
2019-03-22T10:44:23.900Z,15.61
2019-03-22T10:46:49.856Z,15.40
2019-03-22T10:49:15.867Z,15.65
2019-03-22T10:51:41.837Z,15.62
2019-03-22T10:54:07.696Z,15.77
2019-03-22T10:56:34.253Z,15.45
2019-03-22T10:59:00.204Z,15.44
2019-03-22T11:01:26.287Z,15.50
2019-03-22T11:03:52.441Z,15.87
2019-03-22T11:06:25.938Z,15.82
2019-03-22T11:08:46.436Z,16.04
2019-03-22T11:11:12.439Z,16.28
2019-03-22T11:13:38.364Z,16.22
2019-03-22T11:16:04.433Z,16.15
2019-03-22T11:18:37.265Z,15.69
2019-03-22T11:21:05.126Z,16.11
2019-03-22T11:23:25.796Z,16.33
2019-03-22T11:25:51.787Z,16.26
2019-03-22T11:28:17.558Z,16.17
2019-03-22T11:30:43.435Z,16.30
2019-03-22T11:33:09.276Z,16.52
2019-03-22T11:35:37.138Z,16.41
2019-03-22T11:38:03.072Z,16.37
2019-03-22T11:40:29.037Z,16.85
2019-03-22T11:42:55.069Z,16.67
2019-03-22T11:45:22.141Z,16.86
2019-03-22T11:47:48.213Z,16.83
2019-03-22T11:50:14.195Z,17.25
2019-03-22T11:52:40.224Z,16.73
2019-03-22T11:55:08.831Z,16.51
2019-03-22T11:57:34.876Z,17.07
2019-03-22T12:00:00.997Z,17.47
2019-03-22T12:02:26.973Z,17.41
2019-03-22T12:04:53.023Z,17.43
2019-03-22T12:07:18.932Z,17.07
2019-03-22T12:09:44.872Z,16.98
2019-03-22T12:12:10.922Z,17.27
2019-03-22T12:14:36.756Z,16.86
2019-03-22T12:17:02.744Z,17.30
2019-03-22T12:19:28.584Z,17.60
2019-03-22T12:21:54.423Z,17.47
2019-03-22T12:24:20.336Z,17.48
2019-03-22T12:26:46.185Z,17.51
2019-03-22T12:29:12.039Z,18.38
2019-03-22T12:31:38.487Z,17.93
2019-03-22T12:34:04.523Z,18.36
2019-03-22T12:36:30.518Z,18.65
2019-03-22T12:38:56.592Z,18.46
2019-03-22T12:41:22.416Z,18.53
2019-03-22T12:43:48.325Z,18.70
2019-03-22T12:46:14.154Z,19.17
2019-03-22T12:48:40.129Z,19.18
2019-03-22T12:51:06.148Z,19.20
2019-03-22T12:53:31.980Z,19.60
2019-03-22T12:55:57.790Z,20.16
2019-03-22T12:58:23.797Z,21.29
2019-03-22T13:00:49.732Z,19.87
2019-03-22T13:03:15.698Z,20.36
2019-03-22T13:05:41.687Z,21.06
2019-03-22T13:08:07.509Z,20.55
2019-03-22T13:10:33.543Z,23.71
2019-03-22T13:12:59.438Z,20.73
2019-03-22T13:15:25.377Z,23.53
2019-03-22T13:17:51.452Z,22.18
2019-03-22T13:20:17.353Z,22.66
2019-03-22T13:22:43.370Z,23.40
2019-03-22T13:25:11.190Z,25.19
2019-03-22T13:27:37.198Z,24.83
2019-03-22T13:30:06.157Z,25.52
2019-03-22T13:32:32.002Z,28.00
2019-03-22T13:34:57.880Z,28.91
2019-03-22T13:37:23.820Z,28.13
2019-03-22T13:39:49.658Z,24.99
2019-03-22T13:42:15.653Z,26.45
2019-03-22T13:44:41.471Z,25.76
2019-03-22T13:47:07.305Z,26.50
2019-03-22T13:49:33.230Z,26.23
2019-03-22T13:51:59.331Z,26.27
2019-03-22T13:54:25.181Z,26.69
2019-03-22T13:56:51.030Z,27.98
2019-03-22T13:59:16.980Z,27.07
2019-03-22T14:01:42.952Z,28.28
2019-03-22T14:04:08.808Z,24.22
2019-03-22T14:06:34.986Z,24.53
2019-03-22T14:09:00.810Z,27.23
2019-03-22T14:11:26.651Z,24.70
2019-03-22T14:13:52.555Z,25.55
2019-03-22T14:16:18.502Z,26.64
2019-03-22T14:18:44.331Z,29.15
2019-03-22T14:21:10.298Z,27.12
2019-03-22T14:23:36.252Z,25.93
2019-03-22T14:26:02.445Z,25.48
2019-03-22T14:28:28.306Z,27.07
2019-03-22T14:30:54.265Z,27.31
2019-03-22T14:33:20.197Z,26.19
2019-03-22T14:35:47.815Z,27.29
2019-03-22T14:38:13.771Z,26.17
2019-03-22T14:40:39.731Z,26.94
2019-03-22T14:43:05.615Z,28.08
2019-03-22T14:45:31.665Z,25.17
2019-03-22T14:47:57.494Z,25.57
2019-03-22T14:50:23.310Z,27.64
2019-03-22T14:52:49.216Z,24.67
2019-03-22T14:55:15.272Z,25.98
2019-03-22T14:57:49.062Z,24.55
2019-03-22T15:00:11.103Z,26.44
2019-03-22T15:02:36.952Z,27.51
2019-03-22T15:05:04.918Z,28.59
2019-03-22T15:07:30.859Z,24.02
2019-03-22T15:09:56.773Z,23.26
2019-03-22T15:12:22.758Z,25.24
2019-03-22T15:14:50.603Z,27.82
2019-03-22T15:17:36.468Z,22.77
2019-03-22T15:20:08.425Z,22.91
2019-03-22T15:22:53.300Z,23.30
2019-03-22T15:25:39.499Z,22.48
2019-03-22T15:28:07.433Z,21.50
2019-03-22T15:30:51.715Z,24.47
2019-03-22T15:33:36.114Z,21.84
2019-03-22T15:36:06.594Z,22.91
2019-03-22T15:38:34.627Z,22.63
2019-03-22T15:41:00.759Z,25.89
2019-03-22T15:43:26.590Z,24.68
2019-03-22T15:45:53.659Z,25.03
2019-03-22T15:48:19.584Z,24.57
2019-03-22T15:50:45.509Z,22.60
2019-03-22T15:53:11.479Z,22.01
2019-03-22T15:55:37.360Z,22.05
2019-03-22T15:58:03.405Z,22.34
2019-03-22T16:00:32.526Z,22.17
2019-03-22T16:02:58.471Z,21.30
2019-03-22T16:05:24.411Z,21.81
2019-03-22T16:07:50.442Z,21.05
2019-03-22T16:10:16.494Z,20.48
2019-03-22T16:12:42.493Z,21.40
2019-03-22T16:15:11.447Z,21.89
2019-03-22T16:17:37.309Z,22.55
2019-03-22T16:20:06.316Z,20.78
2019-03-22T16:22:32.145Z,21.20
2019-03-22T16:24:57.975Z,21.98
2019-03-22T16:27:23.988Z,20.53
2019-03-22T16:29:49.813Z,21.54
2019-03-22T16:32:15.754Z,22.76
2019-03-22T16:34:41.813Z,23.27
2019-03-22T16:37:07.669Z,23.57
2019-03-22T16:39:33.626Z,22.44
2019-03-22T16:41:59.921Z,22.43
2019-03-22T16:44:25.854Z,22.23
2019-03-22T16:46:51.793Z,21.44
2019-03-22T16:49:17.730Z,21.71
2019-03-22T16:51:43.656Z,22.28
2019-03-22T16:54:09.503Z,21.68
2019-03-22T16:56:35.394Z,20.78
2019-03-22T16:59:01.444Z,19.08
2019-03-22T17:01:27.284Z,19.05
2019-03-22T17:03:53.237Z,18.52
2019-03-22T17:06:19.099Z,18.43
2019-03-22T17:08:44.952Z,18.31
2019-03-22T17:11:10.929Z,18.28
2019-03-22T17:13:36.983Z,18.10
2019-03-22T17:16:03.064Z,17.93
2019-03-22T17:18:29.235Z,17.82
2019-03-22T17:20:55.093Z,17.63
2019-03-22T17:23:21.101Z,17.55
2019-03-22T17:25:46.987Z,17.37
2019-03-22T17:28:12.844Z,17.31
2019-03-22T17:30:38.768Z,17.20
2019-03-22T17:33:04.745Z,17.22
2019-03-22T17:35:30.577Z,16.98
2019-03-22T17:37:56.425Z,16.82
2019-03-22T17:40:22.568Z,16.82
2019-03-22T17:42:48.369Z,16.68
2019-03-22T17:45:16.121Z,16.60
2019-03-22T17:47:42.240Z,16.58
2019-03-22T17:50:10.515Z,16.41
2019-03-22T17:52:36.472Z,16.42
2019-03-22T17:55:04.942Z,16.21
2019-03-22T17:57:30.827Z,16.19
2019-03-22T17:59:56.647Z,16.25
2019-03-22T18:02:22.489Z,16.31
2019-03-22T18:04:48.314Z,16.21
2019-03-22T18:07:14.347Z,16.00
2019-03-22T18:09:40.182Z,15.79
2019-03-22T18:12:06.116Z,15.77
2019-03-22T18:14:32.108Z,15.47
2019-03-22T18:16:57.953Z,15.30
2019-03-22T18:19:23.815Z,15.18
2019-03-22T18:21:49.815Z,14.96
2019-03-22T18:24:15.670Z,14.83
2019-03-22T18:26:41.483Z,14.68
2019-03-22T18:29:07.579Z,14.64
2019-03-22T18:31:33.434Z,14.46
2019-03-22T18:33:59.272Z,14.44
2019-03-22T18:36:25.134Z,14.30
2019-03-22T18:38:51.011Z,14.29
2019-03-22T18:41:16.858Z,14.26
2019-03-22T18:43:42.775Z,14.21
2019-03-22T18:46:08.608Z,14.13
2019-03-22T18:48:34.454Z,14.05
2019-03-22T18:51:00.313Z,13.85
2019-03-22T18:53:26.239Z,13.76
2019-03-22T18:55:52.218Z,13.63
2019-03-22T18:58:18.061Z,13.67
2019-03-22T19:00:43.938Z,13.64
2019-03-22T19:03:09.822Z,13.58
2019-03-22T19:05:35.684Z,13.52
2019-03-22T19:08:02.119Z,13.40
2019-03-22T19:10:27.942Z,13.45
2019-03-22T19:12:53.774Z,13.31
2019-03-22T19:15:19.841Z,13.29
2019-03-22T19:17:45.985Z,13.26
2019-03-22T19:20:13.702Z,13.16
2019-03-22T19:22:39.696Z,13.27
2019-03-22T19:25:06.724Z,13.22
2019-03-22T19:27:32.582Z,13.10
2019-03-22T19:29:58.516Z,13.17
2019-03-22T19:32:24.429Z,13.29
2019-03-22T19:34:54.262Z,13.16
2019-03-22T19:37:18.232Z,13.19
2019-03-22T19:39:44.040Z,13.15
2019-03-22T19:42:09.913Z,12.98
2019-03-22T19:44:35.870Z,12.90
2019-03-22T19:47:03.714Z,13.00
2019-03-22T19:49:29.570Z,12.97
2019-03-22T19:51:55.414Z,12.94
2019-03-22T19:54:21.310Z,12.91
2019-03-22T19:56:47.165Z,12.95
2019-03-22T19:59:13.000Z,12.96
2019-03-22T20:01:39.128Z,12.93
2019-03-22T20:04:05.866Z,12.81
2019-03-22T20:06:31.799Z,12.78
2019-03-22T20:08:57.661Z,12.72
2019-03-22T20:11:23.513Z,12.70
2019-03-22T20:13:49.550Z,12.56
2019-03-22T20:16:15.554Z,12.58
2019-03-22T20:18:41.384Z,12.57
2019-03-22T20:21:07.249Z,12.54
2019-03-22T20:23:33.141Z,12.39
2019-03-22T20:25:59.183Z,12.30
2019-03-22T20:28:25.010Z,12.11
2019-03-22T20:30:50.843Z,12.02
2019-03-22T20:33:16.709Z,12.08
2019-03-22T20:35:42.585Z,11.94
2019-03-22T20:38:08.538Z,11.89
2019-03-22T20:40:34.484Z,11.98
2019-03-22T20:43:00.445Z,11.93
2019-03-22T20:45:26.276Z,11.93
2019-03-22T20:47:52.428Z,11.97
2019-03-22T20:50:18.270Z,11.93
2019-03-22T20:52:44.349Z,11.96
2019-03-22T20:55:10.416Z,11.96
2019-03-22T20:57:36.422Z,11.91
2019-03-22T21:00:08.550Z,12.08
2019-03-22T21:02:34.423Z,12.02
2019-03-22T21:05:00.356Z,11.95
2019-03-22T21:07:26.353Z,11.91
2019-03-22T21:09:52.221Z,11.95
2019-03-22T21:12:18.172Z,11.86
2019-03-22T21:14:44.055Z,11.79
2019-03-22T21:17:09.909Z,11.90
2019-03-22T21:19:35.891Z,11.82
2019-03-22T21:22:01.756Z,11.74
2019-03-22T21:24:27.589Z,11.65
2019-03-22T21:26:53.478Z,11.54
2019-03-22T21:29:19.332Z,11.53
2019-03-22T21:31:45.200Z,11.51
2019-03-22T21:34:11.209Z,11.44
2019-03-22T21:36:37.034Z,11.51
2019-03-22T21:39:05.193Z,11.40
2019-03-22T21:41:31.065Z,11.41
2019-03-22T21:43:56.919Z,11.34
2019-03-22T21:46:23.024Z,11.20
2019-03-22T21:48:48.884Z,11.08
2019-03-22T21:51:14.815Z,10.97
2019-03-22T21:53:40.756Z,10.95
2019-03-22T21:56:06.722Z,10.84
2019-03-22T21:58:32.708Z,10.71
2019-03-22T22:00:58.540Z,10.62
2019-03-22T22:03:28.289Z,10.63
2019-03-22T22:05:54.338Z,10.68
2019-03-22T22:08:20.179Z,10.73
2019-03-22T22:10:46.284Z,10.69
2019-03-22T22:13:12.173Z,10.73
2019-03-22T22:15:38.066Z,10.75
2019-03-22T22:18:03.985Z,10.69
2019-03-22T22:20:29.823Z,10.75
2019-03-22T22:22:55.655Z,10.74
2019-03-22T22:25:21.592Z,10.62
2019-03-22T22:27:47.586Z,10.52
2019-03-22T22:30:13.717Z,10.48
2019-03-22T22:32:39.648Z,10.45
2019-03-22T22:35:06.900Z,10.40
2019-03-22T22:37:32.871Z,10.34
2019-03-22T22:39:58.714Z,10.35
2019-03-22T22:42:24.648Z,10.37
2019-03-22T22:44:50.602Z,10.30
2019-03-22T22:47:16.428Z,10.27
2019-03-22T22:49:42.267Z,10.26
2019-03-22T22:52:08.164Z,10.32
2019-03-22T22:54:34.226Z,10.26
2019-03-22T22:57:00.152Z,10.24
2019-03-22T22:59:26.122Z,10.25
2019-03-22T23:01:52.037Z,10.26
2019-03-22T23:04:18.025Z,10.12
2019-03-22T23:06:44.065Z,10.17
2019-03-22T23:09:10.023Z,10.06
2019-03-22T23:11:35.833Z,10.08
2019-03-22T23:14:01.912Z,10.06
2019-03-22T23:16:27.868Z,10.09
2019-03-22T23:18:53.697Z,10.01
2019-03-22T23:21:19.697Z,9.97
2019-03-22T23:23:45.525Z,10.01
2019-03-22T23:26:11.471Z,9.97
2019-03-22T23:28:37.425Z,9.89
2019-03-22T23:31:03.268Z,9.85
2019-03-22T23:33:36.783Z,9.89
2019-03-22T23:36:02.927Z,9.77
2019-03-22T23:38:28.866Z,9.73
2019-03-22T23:40:54.718Z,9.68
2019-03-22T23:43:20.889Z,9.67
2019-03-22T23:45:46.720Z,9.66
2019-03-22T23:48:12.569Z,9.68
2019-03-22T23:50:38.569Z,9.57
2019-03-22T23:53:04.709Z,9.60
2019-03-22T23:55:30.562Z,9.59
2019-03-22T23:57:56.635Z,9.74
